sensor_id;sensor_type;location;lat;lon;timestamp;P1;durP1;ratioP1;P2;durP2;ratioP2
28766;SDS011;15921;52.034;20.650;2023-09-12T00:00:47;25.10;;;16.40;;
28766;SDS011;15921;52.034;20.650;2023-09-12T00:03:13;26.38;;;16.27;;
28766;SDS011;15921;52.034;20.650;2023-09-12T00:05:39;24.13;;;16.13;;
28766;SDS011;15921;52.034;20.650;2023-09-12T00:08:05;19.98;;;15.50;;
28766;SDS011;15921;52.034;20.650;2023-09-12T00:10:31;25.02;;;16.60;;
28766;SDS011;15921;52.034;20.650;2023-09-12T00:12:57;22.90;;;15.55;;
28766;SDS011;15921;52.034;20.650;2023-09-12T00:15:27;25.63;;;16.33;;
28766;SDS011;15921;52.034;20.650;2023-09-12T00:17:53;23.08;;;16.42;;
28766;SDS011;15921;52.034;20.650;2023-09-12T00:20:18;26.33;;;16.88;;
28766;SDS011;15921;52.034;20.650;2023-09-12T00:22:44;21.23;;;16.15;;
28766;SDS011;15921;52.034;20.650;2023-09-12T00:25:10;24.67;;;16.38;;
28766;SDS011;15921;52.034;20.650;2023-09-12T00:27:36;19.75;;;15.07;;
28766;SDS011;15921;52.034;20.650;2023-09-12T00:30:02;22.10;;;15.75;;
28766;SDS011;15921;52.034;20.650;2023-09-12T00:32:28;20.65;;;15.20;;
28766;SDS011;15921;52.034;20.650;2023-09-12T00:34:54;19.35;;;14.90;;
28766;SDS011;15921;52.034;20.650;2023-09-12T00:37:19;22.73;;;16.23;;
28766;SDS011;15921;52.034;20.650;2023-09-12T00:39:45;24.13;;;16.35;;
28766;SDS011;15921;52.034;20.650;2023-09-12T00:42:12;24.25;;;16.10;;
28766;SDS011;15921;52.034;20.650;2023-09-12T00:44:38;23.75;;;16.63;;
28766;SDS011;15921;52.034;20.650;2023-09-12T00:47:03;20.98;;;15.23;;
28766;SDS011;15921;52.034;20.650;2023-09-12T00:49:30;20.73;;;16.20;;
28766;SDS011;15921;52.034;20.650;2023-09-12T00:51:56;25.95;;;15.88;;
28766;SDS011;15921;52.034;20.650;2023-09-12T00:54:23;23.13;;;16.17;;
28766;SDS011;15921;52.034;20.650;2023-09-12T00:56:49;22.23;;;15.43;;
28766;SDS011;15921;52.034;20.650;2023-09-12T00:59:15;23.38;;;16.42;;
28766;SDS011;15921;52.034;20.650;2023-09-12T01:01:43;21.35;;;15.40;;
28766;SDS011;15921;52.034;20.650;2023-09-12T01:04:09;23.48;;;14.70;;
28766;SDS011;15921;52.034;20.650;2023-09-12T01:06:36;20.75;;;14.93;;
28766;SDS011;15921;52.034;20.650;2023-09-12T01:09:03;21.02;;;14.82;;
28766;SDS011;15921;52.034;20.650;2023-09-12T01:11:29;20.30;;;15.60;;
28766;SDS011;15921;52.034;20.650;2023-09-12T01:13:56;23.80;;;15.05;;
28766;SDS011;15921;52.034;20.650;2023-09-12T01:16:21;19.13;;;14.27;;
28766;SDS011;15921;52.034;20.650;2023-09-12T01:18:47;19.27;;;14.07;;
28766;SDS011;15921;52.034;20.650;2023-09-12T01:29:46;25.45;;;15.52;;
28766;SDS011;15921;52.034;20.650;2023-09-12T01:32:15;20.08;;;14.73;;
28766;SDS011;15921;52.034;20.650;2023-09-12T01:34:43;19.20;;;14.52;;
28766;SDS011;15921;52.034;20.650;2023-09-12T01:37:09;19.98;;;14.88;;
28766;SDS011;15921;52.034;20.650;2023-09-12T01:39:34;27.13;;;15.55;;
28766;SDS011;15921;52.034;20.650;2023-09-12T01:42:00;20.75;;;14.85;;
28766;SDS011;15921;52.034;20.650;2023-09-12T01:44:27;24.60;;;15.52;;
28766;SDS011;15921;52.034;20.650;2023-09-12T01:46:55;22.95;;;15.70;;
28766;SDS011;15921;52.034;20.650;2023-09-12T01:49:25;19.55;;;15.18;;
28766;SDS011;15921;52.034;20.650;2023-09-12T01:51:53;21.48;;;15.55;;
28766;SDS011;15921;52.034;20.650;2023-09-12T01:54:19;23.95;;;14.93;;
28766;SDS011;15921;52.034;20.650;2023-09-12T01:56:46;23.38;;;15.15;;
28766;SDS011;15921;52.034;20.650;2023-09-12T01:59:12;27.35;;;16.10;;
28766;SDS011;15921;52.034;20.650;2023-09-12T02:01:38;21.98;;;15.38;;
28766;SDS011;15921;52.034;20.650;2023-09-12T02:04:04;20.15;;;15.32;;
28766;SDS011;15921;52.034;20.650;2023-09-12T02:06:34;20.67;;;15.45;;
28766;SDS011;15921;52.034;20.650;2023-09-12T02:09:00;22.67;;;16.77;;
28766;SDS011;15921;52.034;20.650;2023-09-12T02:11:26;26.98;;;15.63;;
28766;SDS011;15921;52.034;20.650;2023-09-12T02:13:52;21.08;;;15.05;;
28766;SDS011;15921;52.034;20.650;2023-09-12T02:16:17;22.77;;;16.48;;
28766;SDS011;15921;52.034;20.650;2023-09-12T02:18:43;21.20;;;15.90;;
28766;SDS011;15921;52.034;20.650;2023-09-12T02:21:09;22.05;;;14.30;;
28766;SDS011;15921;52.034;20.650;2023-09-12T02:23:34;23.77;;;15.65;;
28766;SDS011;15921;52.034;20.650;2023-09-12T02:26:00;22.83;;;15.88;;
28766;SDS011;15921;52.034;20.650;2023-09-12T02:28:26;23.25;;;15.90;;
28766;SDS011;15921;52.034;20.650;2023-09-12T02:30:51;22.98;;;15.82;;
28766;SDS011;15921;52.034;20.650;2023-09-12T02:33:17;24.77;;;16.95;;
28766;SDS011;15921;52.034;20.650;2023-09-12T02:35:43;24.08;;;15.73;;
28766;SDS011;15921;52.034;20.650;2023-09-12T02:38:08;21.40;;;14.80;;
28766;SDS011;15921;52.034;20.650;2023-09-12T02:40:34;19.70;;;14.45;;
28766;SDS011;15921;52.034;20.650;2023-09-12T02:43:00;21.25;;;16.05;;
28766;SDS011;15921;52.034;20.650;2023-09-12T02:45:26;18.85;;;14.38;;
28766;SDS011;15921;52.034;20.650;2023-09-12T02:47:51;19.13;;;14.57;;
28766;SDS011;15921;52.034;20.650;2023-09-12T02:50:17;25.25;;;16.02;;
28766;SDS011;15921;52.034;20.650;2023-09-12T02:52:42;19.80;;;15.13;;
28766;SDS011;15921;52.034;20.650;2023-09-12T02:55:08;21.50;;;15.27;;
28766;SDS011;15921;52.034;20.650;2023-09-12T02:57:34;20.77;;;14.63;;
28766;SDS011;15921;52.034;20.650;2023-09-12T03:00:00;21.00;;;15.45;;
28766;SDS011;15921;52.034;20.650;2023-09-12T03:02:25;22.85;;;15.18;;
28766;SDS011;15921;52.034;20.650;2023-09-12T03:04:54;25.88;;;15.13;;
28766;SDS011;15921;52.034;20.650;2023-09-12T03:07:20;20.75;;;14.73;;
28766;SDS011;15921;52.034;20.650;2023-09-12T03:09:48;20.95;;;14.98;;
28766;SDS011;15921;52.034;20.650;2023-09-12T03:12:14;19.25;;;14.27;;
28766;SDS011;15921;52.034;20.650;2023-09-12T03:14:40;20.25;;;14.98;;
28766;SDS011;15921;52.034;20.650;2023-09-12T03:17:06;24.02;;;15.32;;
28766;SDS011;15921;52.034;20.650;2023-09-12T03:19:32;36.05;;;15.95;;
28766;SDS011;15921;52.034;20.650;2023-09-12T03:21:57;45.85;;;16.80;;
28766;SDS011;15921;52.034;20.650;2023-09-12T03:24:23;34.90;;;16.48;;
28766;SDS011;15921;52.034;20.650;2023-09-12T03:26:50;26.27;;;14.95;;
28766;SDS011;15921;52.034;20.650;2023-09-12T03:29:16;31.95;;;15.23;;
28766;SDS011;15921;52.034;20.650;2023-09-12T03:31:42;37.00;;;17.60;;
28766;SDS011;15921;52.034;20.650;2023-09-12T03:34:08;39.60;;;16.60;;
28766;SDS011;15921;52.034;20.650;2023-09-12T03:36:34;23.98;;;14.60;;
28766;SDS011;15921;52.034;20.650;2023-09-12T03:38:59;31.63;;;15.55;;
28766;SDS011;15921;52.034;20.650;2023-09-12T03:41:25;27.52;;;16.15;;
28766;SDS011;15921;52.034;20.650;2023-09-12T03:43:52;29.83;;;15.35;;
28766;SDS011;15921;52.034;20.650;2023-09-12T03:46:19;20.75;;;14.90;;
28766;SDS011;15921;52.034;20.650;2023-09-12T03:48:45;24.83;;;14.60;;
28766;SDS011;15921;52.034;20.650;2023-09-12T03:51:11;22.10;;;14.70;;
28766;SDS011;15921;52.034;20.650;2023-09-12T03:53:37;22.23;;;14.10;;
28766;SDS011;15921;52.034;20.650;2023-09-12T03:56:02;18.08;;;13.27;;
28766;SDS011;15921;52.034;20.650;2023-09-12T03:58:28;19.30;;;13.10;;
28766;SDS011;15921;52.034;20.650;2023-09-12T04:00:54;22.10;;;15.05;;
28766;SDS011;15921;52.034;20.650;2023-09-12T04:03:20;24.40;;;14.65;;
28766;SDS011;15921;52.034;20.650;2023-09-12T04:05:46;22.17;;;14.93;;
28766;SDS011;15921;52.034;20.650;2023-09-12T04:08:12;20.15;;;13.32;;
28766;SDS011;15921;52.034;20.650;2023-09-12T04:10:38;22.65;;;14.27;;
28766;SDS011;15921;52.034;20.650;2023-09-12T04:13:03;17.92;;;13.60;;
28766;SDS011;15921;52.034;20.650;2023-09-12T04:15:29;24.45;;;13.65;;
28766;SDS011;15921;52.034;20.650;2023-09-12T04:17:55;22.80;;;14.50;;
28766;SDS011;15921;52.034;20.650;2023-09-12T04:20:20;26.17;;;15.30;;
28766;SDS011;15921;52.034;20.650;2023-09-12T04:22:46;21.77;;;14.60;;
28766;SDS011;15921;52.034;20.650;2023-09-12T04:25:12;22.27;;;14.13;;
28766;SDS011;15921;52.034;20.650;2023-09-12T04:27:37;18.75;;;14.45;;
28766;SDS011;15921;52.034;20.650;2023-09-12T04:30:03;23.30;;;15.07;;
28766;SDS011;15921;52.034;20.650;2023-09-12T04:32:29;18.50;;;14.27;;
28766;SDS011;15921;52.034;20.650;2023-09-12T04:34:55;21.40;;;13.85;;
28766;SDS011;15921;52.034;20.650;2023-09-12T04:37:21;19.45;;;15.15;;
28766;SDS011;15921;52.034;20.650;2023-09-12T04:39:47;22.38;;;14.73;;
28766;SDS011;15921;52.034;20.650;2023-09-12T04:42:13;21.48;;;14.95;;
28766;SDS011;15921;52.034;20.650;2023-09-12T04:44:39;22.70;;;14.93;;
28766;SDS011;15921;52.034;20.650;2023-09-12T04:47:05;18.98;;;14.68;;
28766;SDS011;15921;52.034;20.650;2023-09-12T04:49:31;21.40;;;14.73;;
28766;SDS011;15921;52.034;20.650;2023-09-12T04:51:57;20.23;;;15.05;;
28766;SDS011;15921;52.034;20.650;2023-09-12T04:54:23;20.70;;;14.25;;
28766;SDS011;15921;52.034;20.650;2023-09-12T04:56:48;20.73;;;15.65;;
28766;SDS011;15921;52.034;20.650;2023-09-12T04:59:14;22.73;;;16.25;;
28766;SDS011;15921;52.034;20.650;2023-09-12T05:01:40;22.75;;;16.10;;
28766;SDS011;15921;52.034;20.650;2023-09-12T05:04:05;22.27;;;15.05;;
28766;SDS011;15921;52.034;20.650;2023-09-12T05:06:31;19.40;;;14.35;;
28766;SDS011;15921;52.034;20.650;2023-09-12T05:08:57;20.63;;;15.95;;
28766;SDS011;15921;52.034;20.650;2023-09-12T05:11:22;22.67;;;16.13;;
28766;SDS011;15921;52.034;20.650;2023-09-12T05:13:49;19.35;;;14.77;;
28766;SDS011;15921;52.034;20.650;2023-09-12T05:16:15;18.92;;;15.10;;
28766;SDS011;15921;52.034;20.650;2023-09-12T05:18:40;23.50;;;15.70;;
28766;SDS011;15921;52.034;20.650;2023-09-12T05:21:06;20.90;;;14.30;;
28766;SDS011;15921;52.034;20.650;2023-09-12T05:23:32;22.50;;;15.35;;
28766;SDS011;15921;52.034;20.650;2023-09-12T05:25:58;20.58;;;15.38;;
28766;SDS011;15921;52.034;20.650;2023-09-12T05:28:23;20.30;;;15.50;;
28766;SDS011;15921;52.034;20.650;2023-09-12T05:30:49;21.40;;;15.38;;
28766;SDS011;15921;52.034;20.650;2023-09-12T05:33:16;22.85;;;15.05;;
28766;SDS011;15921;52.034;20.650;2023-09-12T05:35:42;21.77;;;16.00;;
28766;SDS011;15921;52.034;20.650;2023-09-12T05:38:09;22.77;;;16.75;;
28766;SDS011;15921;52.034;20.650;2023-09-12T05:40:35;21.17;;;16.60;;
28766;SDS011;15921;52.034;20.650;2023-09-12T05:43:00;20.00;;;15.75;;
28766;SDS011;15921;52.034;20.650;2023-09-12T05:45:26;21.08;;;15.95;;
28766;SDS011;15921;52.034;20.650;2023-09-12T05:47:54;24.17;;;17.15;;
28766;SDS011;15921;52.034;20.650;2023-09-12T05:50:20;24.48;;;16.90;;
28766;SDS011;15921;52.034;20.650;2023-09-12T05:52:46;26.75;;;16.67;;
28766;SDS011;15921;52.034;20.650;2023-09-12T05:55:11;27.00;;;18.90;;
28766;SDS011;15921;52.034;20.650;2023-09-12T05:57:37;24.05;;;17.75;;
28766;SDS011;15921;52.034;20.650;2023-09-12T06:00:03;26.23;;;16.75;;
28766;SDS011;15921;52.034;20.650;2023-09-12T06:02:30;24.48;;;16.23;;
28766;SDS011;15921;52.034;20.650;2023-09-12T06:04:58;26.33;;;16.85;;
28766;SDS011;15921;52.034;20.650;2023-09-12T06:07:24;30.73;;;16.65;;
28766;SDS011;15921;52.034;20.650;2023-09-12T06:09:50;29.55;;;16.60;;
28766;SDS011;15921;52.034;20.650;2023-09-12T06:12:16;27.08;;;16.70;;
28766;SDS011;15921;52.034;20.650;2023-09-12T06:14:41;24.38;;;17.35;;
28766;SDS011;15921;52.034;20.650;2023-09-12T06:17:07;23.63;;;16.75;;
28766;SDS011;15921;52.034;20.650;2023-09-12T06:19:33;26.38;;;16.55;;
28766;SDS011;15921;52.034;20.650;2023-09-12T06:21:58;28.77;;;16.52;;
28766;SDS011;15921;52.034;20.650;2023-09-12T06:24:24;27.90;;;15.68;;
28766;SDS011;15921;52.034;20.650;2023-09-12T06:26:50;32.67;;;15.20;;
28766;SDS011;15921;52.034;20.650;2023-09-12T06:29:16;34.50;;;15.43;;
28766;SDS011;15921;52.034;20.650;2023-09-12T06:31:42;28.65;;;15.20;;
28766;SDS011;15921;52.034;20.650;2023-09-12T06:34:08;26.85;;;14.90;;
28766;SDS011;15921;52.034;20.650;2023-09-12T06:36:34;30.02;;;15.93;;
28766;SDS011;15921;52.034;20.650;2023-09-12T06:38:59;25.63;;;14.02;;
28766;SDS011;15921;52.034;20.650;2023-09-12T06:41:26;28.80;;;14.15;;
28766;SDS011;15921;52.034;20.650;2023-09-12T06:43:52;39.85;;;14.63;;
28766;SDS011;15921;52.034;20.650;2023-09-12T06:46:18;47.17;;;15.15;;
28766;SDS011;15921;52.034;20.650;2023-09-12T06:48:44;33.83;;;14.50;;
28766;SDS011;15921;52.034;20.650;2023-09-12T06:51:10;29.70;;;13.95;;
28766;SDS011;15921;52.034;20.650;2023-09-12T06:53:36;22.23;;;12.75;;
28766;SDS011;15921;52.034;20.650;2023-09-12T06:56:05;18.20;;;12.93;;
28766;SDS011;15921;52.034;20.650;2023-09-12T06:58:31;22.98;;;13.95;;
28766;SDS011;15921;52.034;20.650;2023-09-12T07:01:06;16.40;;;11.93;;
28766;SDS011;15921;52.034;20.650;2023-09-12T07:03:33;16.38;;;12.35;;
28766;SDS011;15921;52.034;20.650;2023-09-12T07:05:59;16.20;;;12.15;;
28766;SDS011;15921;52.034;20.650;2023-09-12T07:08:25;18.02;;;11.55;;
28766;SDS011;15921;52.034;20.650;2023-09-12T07:10:51;15.73;;;11.23;;
28766;SDS011;15921;52.034;20.650;2023-09-12T07:13:22;25.45;;;12.02;;
28766;SDS011;15921;52.034;20.650;2023-09-12T07:15:49;17.27;;;10.70;;
28766;SDS011;15921;52.034;20.650;2023-09-12T07:18:15;13.52;;;10.32;;
28766;SDS011;15921;52.034;20.650;2023-09-12T07:20:40;15.95;;;11.20;;
28766;SDS011;15921;52.034;20.650;2023-09-12T07:23:06;18.90;;;11.13;;
28766;SDS011;15921;52.034;20.650;2023-09-12T07:25:40;16.58;;;11.25;;
28766;SDS011;15921;52.034;20.650;2023-09-12T07:28:07;16.63;;;12.20;;
28766;SDS011;15921;52.034;20.650;2023-09-12T07:30:33;22.95;;;11.35;;
28766;SDS011;15921;52.034;20.650;2023-09-12T07:32:59;20.20;;;11.75;;
28766;SDS011;15921;52.034;20.650;2023-09-12T07:35:25;18.00;;;10.85;;
28766;SDS011;15921;52.034;20.650;2023-09-12T07:37:50;18.02;;;11.20;;
28766;SDS011;15921;52.034;20.650;2023-09-12T07:40:16;15.05;;;10.98;;
28766;SDS011;15921;52.034;20.650;2023-09-12T07:42:42;17.00;;;11.00;;
28766;SDS011;15921;52.034;20.650;2023-09-12T07:45:08;19.58;;;10.43;;
28766;SDS011;15921;52.034;20.650;2023-09-12T07:47:34;24.55;;;10.40;;
28766;SDS011;15921;52.034;20.650;2023-09-12T07:50:00;17.42;;;10.70;;
28766;SDS011;15921;52.034;20.650;2023-09-12T07:52:26;13.68;;;9.98;;
28766;SDS011;15921;52.034;20.650;2023-09-12T07:54:52;15.25;;;11.05;;
28766;SDS011;15921;52.034;20.650;2023-09-12T07:57:22;14.57;;;9.98;;
28766;SDS011;15921;52.034;20.650;2023-09-12T07:59:48;16.05;;;9.75;;
28766;SDS011;15921;52.034;20.650;2023-09-12T08:02:14;15.05;;;9.77;;
28766;SDS011;15921;52.034;20.650;2023-09-12T08:04:39;14.00;;;11.13;;
28766;SDS011;15921;52.034;20.650;2023-09-12T08:07:05;19.00;;;9.23;;
28766;SDS011;15921;52.034;20.650;2023-09-12T08:12:17;12.65;;;10.13;;
28766;SDS011;15921;52.034;20.650;2023-09-12T08:14:44;16.05;;;10.68;;
28766;SDS011;15921;52.034;20.650;2023-09-12T08:17:10;12.23;;;9.77;;
28766;SDS011;15921;52.034;20.650;2023-09-12T08:19:37;13.02;;;9.77;;
28766;SDS011;15921;52.034;20.650;2023-09-12T08:22:03;15.98;;;10.15;;
28766;SDS011;15921;52.034;20.650;2023-09-12T08:24:30;17.33;;;10.50;;
28766;SDS011;15921;52.034;20.650;2023-09-12T08:26:55;19.33;;;10.65;;
28766;SDS011;15921;52.034;20.650;2023-09-12T08:29:21;14.30;;;10.90;;
28766;SDS011;15921;52.034;20.650;2023-09-12T08:31:46;16.33;;;10.52;;
28766;SDS011;15921;52.034;20.650;2023-09-12T08:34:12;17.92;;;10.95;;
28766;SDS011;15921;52.034;20.650;2023-09-12T08:36:39;19.05;;;11.07;;
28766;SDS011;15921;52.034;20.650;2023-09-12T08:39:05;12.95;;;9.20;;
28766;SDS011;15921;52.034;20.650;2023-09-12T08:41:33;16.33;;;11.32;;
28766;SDS011;15921;52.034;20.650;2023-09-12T08:43:59;20.10;;;10.75;;
28766;SDS011;15921;52.034;20.650;2023-09-12T08:46:26;15.25;;;10.85;;
28766;SDS011;15921;52.034;20.650;2023-09-12T08:48:55;16.35;;;10.55;;
28766;SDS011;15921;52.034;20.650;2023-09-12T08:51:22;15.55;;;9.57;;
28766;SDS011;15921;52.034;20.650;2023-09-12T08:53:49;16.13;;;10.82;;
28766;SDS011;15921;52.034;20.650;2023-09-12T08:56:15;19.48;;;10.05;;
28766;SDS011;15921;52.034;20.650;2023-09-12T08:58:42;15.80;;;8.57;;
28766;SDS011;15921;52.034;20.650;2023-09-12T09:01:08;15.10;;;9.82;;
28766;SDS011;15921;52.034;20.650;2023-09-12T09:03:36;11.10;;;8.80;;
28766;SDS011;15921;52.034;20.650;2023-09-12T09:06:04;14.20;;;9.30;;
28766;SDS011;15921;52.034;20.650;2023-09-12T09:08:30;11.30;;;9.45;;
28766;SDS011;15921;52.034;20.650;2023-09-12T09:10:57;13.88;;;9.82;;
28766;SDS011;15921;52.034;20.650;2023-09-12T09:13:27;12.25;;;9.60;;
28766;SDS011;15921;52.034;20.650;2023-09-12T09:21:20;12.52;;;9.90;;
28766;SDS011;15921;52.034;20.650;2023-09-12T09:23:51;11.07;;;9.30;;
28766;SDS011;15921;52.034;20.650;2023-09-12T09:26:20;12.02;;;9.50;;
28766;SDS011;15921;52.034;20.650;2023-09-12T09:29:06;12.27;;;8.55;;
28766;SDS011;15921;52.034;20.650;2023-09-12T09:31:33;12.98;;;8.85;;
28766;SDS011;15921;52.034;20.650;2023-09-12T09:33:59;16.88;;;9.75;;
28766;SDS011;15921;52.034;20.650;2023-09-12T09:36:26;12.52;;;8.90;;
28766;SDS011;15921;52.034;20.650;2023-09-12T09:38:52;10.30;;;9.20;;
28766;SDS011;15921;52.034;20.650;2023-09-12T09:41:20;13.27;;;9.95;;
28766;SDS011;15921;52.034;20.650;2023-09-12T09:43:48;11.65;;;9.95;;
28766;SDS011;15921;52.034;20.650;2023-09-12T09:46:16;10.65;;;9.23;;
28766;SDS011;15921;52.034;20.650;2023-09-12T09:48:48;15.40;;;8.70;;
28766;SDS011;15921;52.034;20.650;2023-09-12T09:51:15;18.42;;;9.35;;
28766;SDS011;15921;52.034;20.650;2023-09-12T09:53:41;12.00;;;9.45;;
28766;SDS011;15921;52.034;20.650;2023-09-12T09:56:12;17.83;;;10.32;;
28766;SDS011;15921;52.034;20.650;2023-09-12T10:01:13;13.73;;;9.50;;
28766;SDS011;15921;52.034;20.650;2023-09-12T10:03:45;12.88;;;9.30;;
28766;SDS011;15921;52.034;20.650;2023-09-12T10:06:15;10.90;;;9.38;;
28766;SDS011;15921;52.034;20.650;2023-09-12T10:08:43;11.70;;;8.88;;
28766;SDS011;15921;52.034;20.650;2023-09-12T10:11:14;13.95;;;9.80;;
28766;SDS011;15921;52.034;20.650;2023-09-12T10:13:46;12.00;;;9.05;;
28766;SDS011;15921;52.034;20.650;2023-09-12T10:16:15;12.52;;;9.38;;
28766;SDS011;15921;52.034;20.650;2023-09-12T10:18:45;13.93;;;9.13;;
28766;SDS011;15921;52.034;20.650;2023-09-12T10:21:20;13.13;;;8.98;;
28766;SDS011;15921;52.034;20.650;2023-09-12T10:23:52;14.48;;;9.75;;
28766;SDS011;15921;52.034;20.650;2023-09-12T10:26:19;10.52;;;8.10;;
28766;SDS011;15921;52.034;20.650;2023-09-12T10:28:46;14.55;;;8.55;;
28766;SDS011;15921;52.034;20.650;2023-09-12T10:31:13;11.77;;;8.25;;
28766;SDS011;15921;52.034;20.650;2023-09-12T10:33:40;11.75;;;8.35;;
28766;SDS011;15921;52.034;20.650;2023-09-12T10:36:09;9.80;;;8.55;;
28766;SDS011;15921;52.034;20.650;2023-09-12T10:38:41;9.98;;;8.45;;
28766;SDS011;15921;52.034;20.650;2023-09-12T10:41:12;10.52;;;8.90;;
28766;SDS011;15921;52.034;20.650;2023-09-12T10:43:41;15.88;;;9.13;;
28766;SDS011;15921;52.034;20.650;2023-09-12T10:46:12;10.50;;;9.10;;
28766;SDS011;15921;52.034;20.650;2023-09-12T10:48:38;15.07;;;9.35;;
28766;SDS011;15921;52.034;20.650;2023-09-12T10:51:08;10.32;;;9.00;;
28766;SDS011;15921;52.034;20.650;2023-09-12T10:53:35;14.45;;;9.02;;
28766;SDS011;15921;52.034;20.650;2023-09-12T10:56:13;11.10;;;9.52;;
28766;SDS011;15921;52.034;20.650;2023-09-12T11:01:47;17.02;;;9.73;;
28766;SDS011;15921;52.034;20.650;2023-09-12T11:06:52;14.90;;;8.77;;
28766;SDS011;15921;52.034;20.650;2023-09-12T11:12:03;15.35;;;9.82;;
28766;SDS011;15921;52.034;20.650;2023-09-12T11:19:46;11.90;;;8.95;;
28766;SDS011;15921;52.034;20.650;2023-09-12T11:22:23;16.83;;;9.48;;
28766;SDS011;15921;52.034;20.650;2023-09-12T11:24:51;12.25;;;9.48;;
28766;SDS011;15921;52.034;20.650;2023-09-12T11:27:17;13.88;;;9.05;;
28766;SDS011;15921;52.034;20.650;2023-09-12T11:29:43;13.18;;;9.85;;
28766;SDS011;15921;52.034;20.650;2023-09-12T11:32:10;12.57;;;9.38;;
28766;SDS011;15921;52.034;20.650;2023-09-12T11:34:50;13.07;;;9.02;;
28766;SDS011;15921;52.034;20.650;2023-09-12T11:37:23;13.65;;;9.85;;
28766;SDS011;15921;52.034;20.650;2023-09-12T11:39:53;13.48;;;9.05;;
28766;SDS011;15921;52.034;20.650;2023-09-12T11:42:20;16.75;;;9.93;;
28766;SDS011;15921;52.034;20.650;2023-09-12T11:44:48;15.98;;;9.25;;
28766;SDS011;15921;52.034;20.650;2023-09-12T11:47:15;15.98;;;9.90;;
28766;SDS011;15921;52.034;20.650;2023-09-12T11:49:41;9.85;;;7.97;;
28766;SDS011;15921;52.034;20.650;2023-09-12T11:52:11;11.57;;;8.88;;
28766;SDS011;15921;52.034;20.650;2023-09-12T11:54:38;14.48;;;8.38;;
28766;SDS011;15921;52.034;20.650;2023-09-12T11:57:06;10.20;;;8.68;;
28766;SDS011;15921;52.034;20.650;2023-09-12T11:59:36;11.95;;;8.73;;
28766;SDS011;15921;52.034;20.650;2023-09-12T12:02:05;13.07;;;8.45;;
28766;SDS011;15921;52.034;20.650;2023-09-12T12:04:32;14.40;;;8.52;;
28766;SDS011;15921;52.034;20.650;2023-09-12T12:06:59;13.30;;;9.38;;
28766;SDS011;15921;52.034;20.650;2023-09-12T12:09:26;10.07;;;8.45;;
28766;SDS011;15921;52.034;20.650;2023-09-12T12:11:52;32.45;;;9.40;;
28766;SDS011;15921;52.034;20.650;2023-09-12T12:14:17;11.20;;;7.95;;
28766;SDS011;15921;52.034;20.650;2023-09-12T12:16:45;11.63;;;9.02;;
28766;SDS011;15921;52.034;20.650;2023-09-12T12:19:12;10.52;;;7.38;;
28766;SDS011;15921;52.034;20.650;2023-09-12T12:21:39;13.10;;;8.32;;
28766;SDS011;15921;52.034;20.650;2023-09-12T12:24:07;12.80;;;8.85;;
28766;SDS011;15921;52.034;20.650;2023-09-12T12:26:35;11.77;;;7.75;;
28766;SDS011;15921;52.034;20.650;2023-09-12T12:29:01;9.07;;;7.40;;
28766;SDS011;15921;52.034;20.650;2023-09-12T12:31:27;11.23;;;7.72;;
28766;SDS011;15921;52.034;20.650;2023-09-12T12:33:54;9.20;;;7.60;;
28766;SDS011;15921;52.034;20.650;2023-09-12T12:36:20;12.05;;;7.97;;
28766;SDS011;15921;52.034;20.650;2023-09-12T12:38:47;11.43;;;7.47;;
28766;SDS011;15921;52.034;20.650;2023-09-12T12:41:14;10.20;;;7.53;;
28766;SDS011;15921;52.034;20.650;2023-09-12T12:43:41;14.93;;;8.23;;
28766;SDS011;15921;52.034;20.650;2023-09-12T12:46:11;8.98;;;7.18;;
28766;SDS011;15921;52.034;20.650;2023-09-12T12:48:37;10.27;;;7.22;;
28766;SDS011;15921;52.034;20.650;2023-09-12T12:53:43;10.95;;;7.70;;
28766;SDS011;15921;52.034;20.650;2023-09-12T12:56:11;10.57;;;8.23;;
28766;SDS011;15921;52.034;20.650;2023-09-12T12:59:05;8.45;;;7.55;;
28766;SDS011;15921;52.034;20.650;2023-09-12T13:01:37;10.35;;;7.53;;
28766;SDS011;15921;52.034;20.650;2023-09-12T13:04:07;7.50;;;6.80;;
28766;SDS011;15921;52.034;20.650;2023-09-12T13:06:33;8.68;;;7.60;;
28766;SDS011;15921;52.034;20.650;2023-09-12T13:09:03;8.20;;;7.07;;
28766;SDS011;15921;52.034;20.650;2023-09-12T13:11:31;9.52;;;7.03;;
28766;SDS011;15921;52.034;20.650;2023-09-12T13:14:00;7.82;;;7.03;;
28766;SDS011;15921;52.034;20.650;2023-09-12T13:16:26;8.70;;;7.18;;
28766;SDS011;15921;52.034;20.650;2023-09-12T13:18:53;9.30;;;7.40;;
28766;SDS011;15921;52.034;20.650;2023-09-12T13:21:18;13.57;;;7.50;;
28766;SDS011;15921;52.034;20.650;2023-09-12T13:23:44;18.70;;;8.35;;
28766;SDS011;15921;52.034;20.650;2023-09-12T13:26:10;9.75;;;7.80;;
28766;SDS011;15921;52.034;20.650;2023-09-12T13:28:36;9.52;;;7.82;;
28766;SDS011;15921;52.034;20.650;2023-09-12T13:31:02;9.63;;;7.88;;
28766;SDS011;15921;52.034;20.650;2023-09-12T13:33:28;8.05;;;7.25;;
28766;SDS011;15921;52.034;20.650;2023-09-12T13:35:54;11.00;;;7.68;;
28766;SDS011;15921;52.034;20.650;2023-09-12T13:38:19;11.13;;;7.43;;
28766;SDS011;15921;52.034;20.650;2023-09-12T13:40:46;9.70;;;7.85;;
28766;SDS011;15921;52.034;20.650;2023-09-12T13:43:12;8.45;;;7.05;;
28766;SDS011;15921;52.034;20.650;2023-09-12T13:45:38;9.30;;;6.80;;
28766;SDS011;15921;52.034;20.650;2023-09-12T13:48:04;9.77;;;7.35;;
28766;SDS011;15921;52.034;20.650;2023-09-12T13:50:31;8.85;;;7.45;;
28766;SDS011;15921;52.034;20.650;2023-09-12T13:52:57;9.10;;;7.60;;
28766;SDS011;15921;52.034;20.650;2023-09-12T13:55:34;8.95;;;7.35;;
28766;SDS011;15921;52.034;20.650;2023-09-12T13:58:04;9.63;;;7.68;;
28766;SDS011;15921;52.034;20.650;2023-09-12T14:00:31;8.27;;;7.43;;
28766;SDS011;15921;52.034;20.650;2023-09-12T14:02:58;15.18;;;7.68;;
28766;SDS011;15921;52.034;20.650;2023-09-12T14:05:24;9.13;;;7.72;;
28766;SDS011;15921;52.034;20.650;2023-09-12T14:07:50;13.52;;;7.55;;
28766;SDS011;15921;52.034;20.650;2023-09-12T14:10:16;10.43;;;7.28;;
28766;SDS011;15921;52.034;20.650;2023-09-12T14:12:42;9.25;;;7.70;;
28766;SDS011;15921;52.034;20.650;2023-09-12T14:15:09;9.75;;;7.72;;
28766;SDS011;15921;52.034;20.650;2023-09-12T14:17:36;9.02;;;7.13;;
28766;SDS011;15921;52.034;20.650;2023-09-12T14:20:02;11.35;;;7.57;;
28766;SDS011;15921;52.034;20.650;2023-09-12T14:22:28;14.13;;;9.00;;
28766;SDS011;15921;52.034;20.650;2023-09-12T14:24:54;8.52;;;7.50;;
28766;SDS011;15921;52.034;20.650;2023-09-12T14:27:20;11.80;;;7.72;;
28766;SDS011;15921;52.034;20.650;2023-09-12T14:29:46;8.55;;;7.28;;
28766;SDS011;15921;52.034;20.650;2023-09-12T14:32:14;10.50;;;7.80;;
28766;SDS011;15921;52.034;20.650;2023-09-12T14:34:40;11.27;;;7.45;;
28766;SDS011;15921;52.034;20.650;2023-09-12T14:37:06;15.18;;;7.22;;
28766;SDS011;15921;52.034;20.650;2023-09-12T14:39:32;9.13;;;7.68;;
28766;SDS011;15921;52.034;20.650;2023-09-12T14:41:58;7.78;;;6.97;;
28766;SDS011;15921;52.034;20.650;2023-09-12T14:44:26;11.43;;;7.60;;
28766;SDS011;15921;52.034;20.650;2023-09-12T14:46:53;15.90;;;8.00;;
28766;SDS011;15921;52.034;20.650;2023-09-12T14:49:19;8.38;;;7.45;;